Time;durP1;ratioP1;P1;durP2;ratioP2;P2;SDS_P1;SDS_P2;PMS_P1;PMS_P2;Temp;Humidity;BMP_temperature;BMP_pressure;BME280_temperature;BME280_humidity;BME280_pressure;Samples;Min_cycle;Max_cycle;Signal;HPM_P1;HPM_P2
2023/03/02 00:01:24;;;;;;;30.23;15.68;;;;;;;7.28;100.00;96302.16;5066304;28;20091;-51
2023/03/02 00:03:53;;;;;;;33.95;18.35;;;;;;;7.01;100.00;96305.28;5064685;28;20091;-48
2023/03/02 00:06:21;;;;;;;34.58;19.75;;;;;;;7.15;100.00;96304.13;5066445;28;20084;-53
2023/03/02 00:08:49;;;;;;;34.95;17.33;;;;;;;7.26;100.00;96309.34;5068752;28;20084;-54
2023/03/02 00:11:20;;;;;;;22.40;12.55;;;;;;;7.49;100.00;96298.69;5066340;28;20084;-49
2023/03/02 00:13:48;;;;;;;;;;;;;;;7.18;100.00;96296.03;5066998;28;20083;-47
2023/03/02 00:16:16;;;;;;;35.95;17.83;;;;;;;7.21;100.00;96303.63;5067729;28;19967;-50
2023/03/02 00:18:45;;;;;;;33.03;17.98;;;;;;;7.52;100.00;96299.28;5065225;28;20072;-52
2023/03/02 00:21:13;;;;;;;32.22;16.20;;;;;;;7.69;100.00;96304.88;5067120;28;20083;-50
2023/03/02 00:23:41;;;;;;;33.65;16.48;;;;;;;7.59;100.00;96299.59;5066806;28;20084;-49
2023/03/02 00:26:09;;;;;;;35.28;17.73;;;;;;;7.51;100.00;96296.78;5066973;28;20613;-44
2023/03/02 00:28:39;;;;;;;37.30;17.23;;;;;;;7.35;100.00;96305.09;5067506;28;20080;-53
2023/03/02 00:31:07;;;;;;;31.58;15.75;;;;;;;7.22;100.00;96301.84;5067304;28;20084;-48
2023/03/02 00:33:36;;;;;;;37.08;18.33;;;;;;;7.20;100.00;96303.78;5066319;28;20479;-49
2023/03/02 00:36:05;;;;;;;33.78;18.60;;;;;;;7.00;100.00;96298.38;5067547;28;20072;-49
2023/03/02 00:38:33;;;;;;;36.58;17.90;;;;;;;6.98;100.00;96302.09;5066919;28;20072;-52
2023/03/02 00:41:02;;;;;;;21.98;11.60;;;;;;;7.17;100.00;96297.00;5064398;28;20084;-45
2023/03/02 00:43:30;;;;;;;31.50;14.75;;;;;;;7.14;100.00;96299.88;5067634;28;20087;-53
2023/03/02 00:46:00;;;;;;;30.17;17.85;;;;;;;6.97;100.00;96300.44;5066087;28;20083;-49
2023/03/02 00:48:28;;;;;;;32.45;16.42;;;;;;;7.05;100.00;96298.81;5066322;28;20079;-52
2023/03/02 00:50:56;;;;;;;33.08;16.70;;;;;;;7.54;100.00;96297.38;5061221;28;20084;-51
2023/03/02 00:53:25;;;;;;;30.73;14.63;;;;;;;7.71;100.00;96295.06;5065605;28;20075;-51
2023/03/02 00:55:54;;;;;;;34.92;15.20;;;;;;;7.87;100.00;96290.19;5065068;28;20513;-50
2023/03/02 00:58:22;;;;;;;31.30;15.90;;;;;;;7.42;100.00;96303.63;5066315;28;20087;-48
2023/03/02 01:00:50;;;;;;;33.25;16.13;;;;;;;7.21;100.00;96295.75;5066041;28;20084;-48
2023/03/02 01:03:20;;;;;;;21.77;11.93;;;;;;;7.34;100.00;96287.72;5065663;28;20091;-49
2023/03/02 01:05:49;;;;;;;30.67;15.15;;;;;;;7.18;100.00;96287.31;5066474;28;20084;-49
2023/03/02 01:08:17;;;;;;;29.13;14.90;;;;;;;7.05;100.00;96284.88;5066837;28;20080;-46
2023/03/02 01:10:45;;;;;;;30.27;16.35;;;;;;;6.57;100.00;96283.56;5066928;28;20467;-51
2023/03/02 01:13:13;;;;;;;33.28;16.30;;;;;;;6.95;100.00;96278.75;5064673;28;20083;-51
2023/03/02 01:15:41;;;;;;;32.65;18.00;;;;;;;6.79;100.00;96281.81;5065098;28;20076;-53
2023/03/02 01:18:10;;;;;;;26.38;15.57;;;;;;;6.83;100.00;96278.78;5066621;28;20090;-45
2023/03/02 01:20:41;;;;;;;29.50;16.55;;;;;;;6.66;100.00;96272.31;5065239;28;20098;-51
2023/03/02 01:23:09;;;;;;;32.45;17.00;;;;;;;7.07;100.00;96273.31;5066594;28;20092;-49
2023/03/02 01:25:38;;;;;;;26.70;15.77;;;;;;;6.49;100.00;96259.75;5065336;28;20088;-52
2023/03/02 01:28:06;;;;;;;28.63;14.77;;;;;;;7.21;100.00;96258.22;5065414;28;20088;-49
2023/03/02 01:30:35;;;;;;;34.38;18.33;;;;;;;6.80;100.00;96258.09;5064753;28;20083;-51
2023/03/02 01:33:03;;;;;;;31.83;15.63;;;;;;;6.99;100.00;96253.97;5065215;28;20095;-53
2023/03/02 01:35:31;;;;;;;29.75;16.42;;;;;;;6.83;100.00;96255.22;5065578;28;20084;-52
2023/03/02 01:38:01;;;;;;;31.42;15.88;;;;;;;6.87;100.00;96246.13;5066285;28;20063;-49
2023/03/02 01:40:29;;;;;;;30.03;17.07;;;;;;;7.04;100.00;96252.59;5063547;28;20084;-49
2023/03/02 01:43:01;;;;;;;26.80;12.93;;;;;;;6.97;100.00;96246.19;5063514;28;20076;-53
2023/03/02 01:45:50;;;;;;;27.48;14.75;;;;;;;7.33;100.00;96230.97;5063323;28;20147;-49
2023/03/02 01:48:23;;;;;;;29.65;14.38;;;;;;;7.33;100.00;96229.19;5062485;28;20072;-46
2023/03/02 01:50:52;;;;;;;30.73;16.15;;;;;;;6.86;100.00;96241.03;5065239;28;20083;-52
2023/03/02 01:53:23;;;;;;;33.55;16.60;;;;;;;7.01;100.00;96236.28;5066270;28;20083;-47
2023/03/02 01:55:51;;;;;;;30.40;15.40;;;;;;;7.38;100.00;96231.41;5065300;28;20080;-51
2023/03/02 01:58:20;;;;;;;27.63;15.30;;;;;;;6.92;100.00;96240.53;5064198;28;20143;-51
2023/03/02 02:00:49;;;;;;;32.05;14.70;;;;;;;7.15;100.00;96238.59;5063818;28;20724;-52
2023/03/02 02:03:20;;;;;;;28.98;14.63;;;;;;;6.98;100.00;96239.16;5065392;28;20088;-47
2023/03/02 02:05:56;;;;;;;28.88;15.95;;;;;;;7.14;100.00;96236.94;5066005;28;20053;-53
2023/03/02 02:08:26;;;;;;;28.05;14.85;;;;;;;6.99;100.00;96235.59;5062285;28;20080;-50
2023/03/02 02:10:55;;;;;;;;;;;;;;;6.75;100.00;96228.81;5064655;28;20045;-54
2023/03/02 02:13:23;;;;;;;31.83;14.25;;;;;;;7.02;100.00;96230.06;5063842;28;19963;-54
2023/03/02 02:15:51;;;;;;;14.95;8.57;;;;;;;6.56;100.00;96234.72;5064220;28;20537;-54
2023/03/02 02:18:19;;;;;;;32.33;16.95;;;;;;;6.38;100.00;96229.19;5065245;28;20083;-52
2023/03/02 02:20:49;;;;;;;30.33;17.67;;;;;;;6.44;100.00;96227.88;5063324;28;20083;-50
2023/03/02 02:23:26;;;;;;;21.50;10.32;;;;;;;6.45;100.00;96219.06;5064292;28;20079;-48
2023/03/02 02:26:23;;;;;;;30.33;15.00;;;;;;;6.93;100.00;96217.75;5062410;28;20273;-49
2023/03/02 02:28:56;;;;;;;31.08;16.52;;;;;;;6.37;100.00;96218.84;5054943;28;20064;-49
2023/03/02 02:31:30;;;;;;;30.63;16.98;;;;;;;6.62;100.00;96208.03;5060868;28;20076;-48
2023/03/02 02:34:02;;;;;;;26.85;14.15;;;;;;;6.95;100.00;96200.09;5060440;28;20094;-52
2023/03/02 02:36:33;;;;;;;28.02;14.40;;;;;;;7.45;100.00;96197.59;5062451;28;20069;-49
2023/03/02 02:39:03;;;;;;;31.10;15.80;;;;;;;6.98;100.00;96207.72;5063245;28;20072;-49
2023/03/02 02:41:35;;;;;;;28.58;15.80;;;;;;;6.66;100.00;96209.44;5062467;28;20080;-52
2023/03/02 02:44:04;;;;;;;29.85;16.05;;;;;;;6.62;100.00;96204.56;5065273;28;20765;-50
2023/03/02 02:46:32;;;;;;;29.23;15.90;;;;;;;6.62;100.00;96207.19;5064456;28;20087;-51
2023/03/02 02:49:02;;;;;;;29.85;15.95;;;;;;;6.48;100.00;96207.50;5064996;28;20076;-53
2023/03/02 02:51:32;;;;;;;30.58;17.08;;;;;;;6.25;100.00;96207.56;5064564;28;20084;-54
2023/03/02 02:54:01;;;;;;;34.20;17.13;;;;;;;6.54;100.00;96207.84;5063746;28;20076;-49
2023/03/02 02:56:33;;;;;;;30.63;13.30;;;;;;;6.90;100.00;96200.50;5064161;28;20087;-50
2023/03/02 02:59:04;;;;;;;33.15;16.77;;;;;;;6.81;100.00;96196.88;5064364;28;20072;-53
2023/03/02 03:01:33;;;;;;;27.33;13.75;;;;;;;6.95;100.00;96198.34;5065340;28;20088;-51
2023/03/02 03:04:04;;;;;;;26.75;14.60;;;;;;;6.86;100.00;96205.16;5063785;28;20087;-46
2023/03/02 03:06:40;;;;;;;31.48;14.93;;;;;;;6.77;100.00;96203.28;5063455;28;20147;-50
2023/03/02 03:09:11;;;;;;;31.73;16.33;;;;;;;6.90;100.00;96196.06;5063534;28;20111;-53
2023/03/02 03:11:42;;;;;;;28.48;14.45;;;;;;;6.54;100.00;96197.34;5063333;28;21107;-53
2023/03/02 03:14:12;;;;;;;28.02;14.05;;;;;;;6.95;100.00;96194.84;5065212;28;20088;-52
2023/03/02 03:16:43;;;;;;;29.30;16.98;;;;;;;6.96;100.00;96186.88;5062095;28;20076;-52
2023/03/02 03:19:17;;;;;;;26.98;14.75;;;;;;;7.25;100.00;96184.41;5061972;28;20494;-52
2023/03/02 03:21:45;;;;;;;29.95;15.68;;;;;;;7.00;100.00;96192.69;5063336;28;20080;-54
2023/03/02 03:24:14;;;;;;;28.95;15.13;;;;;;;7.00;100.00;96188.28;5066013;28;20095;-47
2023/03/02 03:26:43;;;;;;;27.17;14.43;;;;;;;7.40;100.00;96178.78;5068040;28;20095;-50
2023/03/02 03:29:12;;;;;;;34.00;16.17;;;;;;;7.11;100.00;96185.56;5067985;28;20080;-55
2023/03/02 03:31:40;;;;;;;31.67;14.70;;;;;;;7.43;100.00;96178.53;5067403;28;20105;-51
2023/03/02 03:34:09;;;;;;;29.80;15.07;;;;;;;7.73;100.00;96183.75;5065691;28;20087;-52
2023/03/02 03:36:38;;;;;;;26.92;14.43;;;;;;;7.33;100.00;96187.22;5066825;28;20076;-51
2023/03/02 03:39:06;;;;;;;31.98;15.27;;;;;;;7.45;100.00;96184.50;5064426;28;20084;-50
2023/03/02 03:41:34;;;;;;;33.40;15.73;;;;;;;7.41;100.00;96190.97;5061392;28;20079;-52
2023/03/02 03:44:04;;;;;;;27.85;14.60;;;;;;;7.53;100.00;96188.09;5068239;28;20083;-52
2023/03/02 03:46:33;;;;;;;32.63;15.82;;;;;;;7.54;100.00;96187.16;5065828;28;20095;-49
2023/03/02 03:49:03;;;;;;;30.92;15.43;;;;;;;7.79;100.00;96182.41;5067805;28;20086;-48
2023/03/02 03:51:34;;;;;;;28.40;16.05;;;;;;;7.71;100.00;96183.06;5066511;28;20076;-52
2023/03/02 03:54:03;;;;;;;31.00;15.38;;;;;;;7.99;100.00;96185.91;5067522;28;20478;-51
2023/03/02 03:56:34;;;;;;;27.27;14.88;;;;;;;8.24;100.00;96177.50;5066548;28;20091;-48
2023/03/02 03:59:06;;;;;;;26.42;13.82;;;;;;;8.14;91.17;96181.91;5063238;28;20553;-52
2023/03/02 04:01:36;;;;;;;26.45;14.63;;;;;;;8.00;88.32;96183.13;5065238;28;20094;-51
2023/03/02 04:04:05;;;;;;;26.98;13.85;;;;;;;7.84;86.95;96183.66;5065762;28;20088;-52
2023/03/02 04:06:34;;;;;;;26.73;13.07;;;;;;;7.70;87.26;96178.75;5066807;28;20088;-49
2023/03/02 04:09:03;;;;;;;30.65;13.98;;;;;;;7.60;89.31;96186.63;5065600;28;20162;-52
2023/03/02 04:11:32;;;;;;;26.63;13.23;;;;;;;7.58;90.98;96190.34;5064830;28;20410;-52
2023/03/02 04:14:00;;;;;;;28.20;14.27;;;;;;;7.47;94.05;96182.59;5067839;28;20474;-52
2023/03/02 04:16:30;;;;;;;26.88;13.77;;;;;;;7.34;96.53;96182.78;5065506;28;20087;-54
2023/03/02 04:18:59;;;;;;;26.30;14.13;;;;;;;7.54;92.64;96187.16;5060897;28;20083;-52
2023/03/02 04:21:28;;;;;;;28.52;14.00;;;;;;;7.37;96.43;96188.59;5065116;28;20072;-51
2023/03/02 04:23:56;;;;;;;29.35;13.98;;;;;;;7.35;98.69;96187.91;5068102;28;20103;-52
2023/03/02 04:26:25;;;;;;;30.05;14.93;;;;;;;7.49;100.00;96180.63;5066533;28;20084;-54
2023/03/02 04:28:53;;;;;;;30.95;14.52;;;;;;;7.21;100.00;96179.56;5066251;28;20562;-53
2023/03/02 04:31:22;;;;;;;29.08;15.60;;;;;;;6.39;100.00;96190.75;5062341;28;20083;-51
2023/03/02 04:33:51;;;;;;;27.33;14.10;;;;;;;6.47;100.00;96183.09;5066123;28;20099;-49
2023/03/02 04:36:20;;;;;;;31.17;15.33;;;;;;;6.66;100.00;96179.78;5059382;28;20103;-51
2023/03/02 04:38:49;;;;;;;29.00;14.85;;;;;;;6.96;100.00;96171.16;5063699;28;20075;-51
2023/03/02 04:41:18;;;;;;;29.30;14.15;;;;;;;7.16;100.00;96169.47;5065656;28;20076;-45
2023/03/02 04:43:46;;;;;;;31.60;16.50;;;;;;;7.58;100.00;96172.81;5064553;28;20072;-50
2023/03/02 04:46:15;;;;;;;32.70;16.02;;;;;;;7.60;100.00;96172.66;5064145;28;20525;-46
2023/03/02 04:48:44;;;;;;;28.83;14.55;;;;;;;7.77;100.00;96171.19;5065041;28;20079;-48
2023/03/02 04:51:17;;;;;;;30.55;15.85;;;;;;;7.77;100.00;96174.63;5064044;28;20689;-49
2023/03/02 04:53:45;;;;;;;29.20;14.90;;;;;;;7.53;98.86;96179.41;5067158;28;20072;-49
2023/03/02 04:56:14;;;;;;;28.85;14.90;;;;;;;7.51;95.71;96173.47;5066360;28;20092;-50
2023/03/02 04:58:42;;;;;;;28.80;14.23;;;;;;;7.36;92.01;96172.97;5066764;28;20084;-46
2023/03/02 05:01:11;;;;;;;26.17;14.52;;;;;;;7.41;92.08;96177.84;5062945;28;20150;-47
2023/03/02 05:03:39;;;;;;;25.42;14.32;;;;;;;7.42;95.14;96166.38;5064083;28;20087;-54
2023/03/02 05:06:08;;;;;;;27.15;14.65;;;;;;;7.49;96.35;96162.28;5062492;28;20576;-52
2023/03/02 05:08:38;;;;;;;28.27;14.88;;;;;;;6.87;100.00;96167.50;5065251;28;20072;-49
2023/03/02 05:11:06;;;;;;;31.10;15.18;;;;;;;6.91;100.00;96160.22;5067145;28;20452;-53
2023/03/02 05:13:35;;;;;;;25.60;14.02;;;;;;;7.08;100.00;96156.97;5064076;28;20686;-48
2023/03/02 05:16:04;;;;;;;31.05;15.10;;;;;;;6.65;100.00;96167.66;5065546;28;20083;-56
2023/03/02 05:18:33;;;;;;;28.15;14.25;;;;;;;6.65;100.00;96168.47;5062042;28;20083;-51
2023/03/02 05:21:01;;;;;;;27.63;14.43;;;;;;;6.81;100.00;96172.41;5062561;28;20485;-48
2023/03/02 05:23:30;;;;;;;28.40;14.07;;;;;;;7.10;100.00;96172.59;5065215;28;20044;-47
2023/03/02 05:26:00;;;;;;;28.67;13.50;;;;;;;6.81;100.00;96177.66;5064851;28;20080;-46
2023/03/02 05:28:28;;;;;;;28.60;14.93;;;;;;;6.64;100.00;96176.44;5064619;28;20095;-50
2023/03/02 05:30:57;;;;;;;30.55;15.25;;;;;;;7.25;100.00;96165.22;5062572;28;20522;-47
2023/03/02 05:33:25;;;;;;;34.25;14.88;;;;;;;7.08;100.00;96166.66;5058839;28;20088;-55
2023/03/02 05:35:54;;;;;;;28.75;14.30;;;;;;;7.36;100.00;96167.72;5065331;28;20080;-49
2023/03/02 05:38:22;;;;;;;27.40;14.40;;;;;;;7.34;100.00;96180.16;5063705;28;20552;-49
2023/03/02 05:40:50;;;;;;;31.48;15.60;;;;;;;7.49;100.00;96170.16;5066429;28;20068;-50
2023/03/02 05:43:22;;;;;;;27.13;14.70;;;;;;;7.42;100.00;96174.25;5066067;28;20091;-53
2023/03/02 05:45:50;;;;;;;30.65;15.50;;;;;;;7.38;100.00;96177.16;5066251;28;20088;-47
2023/03/02 05:48:18;;;;;;;32.40;15.40;;;;;;;6.85;100.00;96187.78;5062634;28;20095;-52
2023/03/02 05:50:47;;;;;;;30.25;16.50;;;;;;;6.89;100.00;96186.56;5064846;28;20080;-48
2023/03/02 05:53:15;;;;;;;30.88;15.27;;;;;;;7.25;100.00;96175.69;5064518;28;20512;-53
2023/03/02 05:55:43;;;;;;;31.77;15.35;;;;;;;7.16;100.00;96182.59;5058000;28;20076;-51
2023/03/02 05:58:14;;;;;;;29.90;14.98;;;;;;;6.68;100.00;96192.78;5063697;28;20087;-47
2023/03/02 06:00:43;;;;;;;;;;;;;;;6.68;100.00;96192.78;5062277;28;20092;-48
2023/03/02 06:03:12;;;;;;;30.98;15.15;;;;;;;7.32;100.00;96182.09;5061423;28;19959;-52
2023/03/02 06:05:40;;;;;;;29.33;14.75;;;;;;;6.93;100.00;96183.69;5064593;28;20075;-50
2023/03/02 06:08:08;;;;;;;31.88;15.18;;;;;;;7.00;100.00;96180.41;5063331;28;20092;-47
2023/03/02 06:10:37;;;;;;;26.67;14.05;;;;;;;6.72;100.00;96195.00;5062166;28;20529;-46
2023/03/02 06:13:05;;;;;;;33.13;15.25;;;;;;;6.38;100.00;96199.56;5057832;28;20529;-46
2023/03/02 06:15:33;;;;;;;31.63;16.05;;;;;;;6.77;100.00;96195.44;5060443;28;20084;-52
2023/03/02 06:18:03;;;;;;;30.40;15.02;;;;;;;6.67;100.00;96191.91;5062381;28;21771;-47
2023/03/02 06:20:31;;;;;;;29.85;14.48;;;;;;;7.18;100.00;96180.63;5061314;28;20526;-53
2023/03/02 06:22:59;;;;;;;29.30;15.07;;;;;;;7.47;100.00;96180.78;5069619;28;20080;-47
2023/03/02 06:25:28;;;;;;;31.10;15.18;;;;;;;7.77;100.00;96185.13;5067104;28;20095;-48
2023/03/02 06:27:56;;;;;;;31.38;14.38;;;;;;;7.34;100.00;96194.13;5066706;28;20087;-51
2023/03/02 06:30:26;;;;;;;29.58;14.98;;;;;;;8.17;100.00;96180.81;5066617;28;20118;-48
2023/03/02 06:32:55;;;;;;;33.10;14.88;;;;;;;7.84;100.00;96188.91;5067612;28;20548;-50
2023/03/02 06:35:24;;;;;;;30.15;14.93;;;;;;;8.18;100.00;96185.09;5062930;28;22928;-51
2023/03/02 06:37:53;;;;;;;28.67;15.23;;;;;;;7.68;100.00;96188.59;5060233;28;20091;-51
2023/03/02 06:40:21;;;;;;;27.83;14.23;;;;;;;7.48;100.00;96189.47;5060399;28;20537;-51
2023/03/02 06:42:49;;;;;;;31.15;15.43;;;;;;;7.74;100.00;96188.06;5062340;28;20102;-52
2023/03/02 06:45:18;;;;;;;34.92;15.57;;;;;;;7.85;100.00;96195.81;5063455;28;20095;-52
2023/03/02 06:47:46;;;;;;;30.13;15.63;;;;;;;7.77;100.00;96198.25;5062348;28;20080;-48
2023/03/02 06:50:14;;;;;;;27.40;14.80;;;;;;;8.19;100.00;96203.34;5061858;28;20076;-55
2023/03/02 06:52:44;;;;;;;30.00;15.45;;;;;;;8.71;98.94;96193.44;5063312;28;20091;-52
2023/03/02 06:55:12;;;;;;;26.48;14.20;;;;;;;8.79;98.66;96198.81;5064452;28;20092;-52
2023/03/02 06:57:41;;;;;;;29.35;14.95;;;;;;;8.64;100.00;96200.22;5062043;28;20079;-54
2023/03/02 07:00:15;;;;;;;29.65;15.00;;;;;;;8.90;96.55;96186.50;5060340;28;20174;-52
2023/03/02 07:02:44;;;;;;;28.13;13.68;;;;;;;8.86;96.59;96187.75;5064855;28;20088;-54
2023/03/02 07:05:13;;;;;;;28.08;14.82;;;;;;;9.40;88.87;96192.31;5067733;28;20688;-50
2023/03/02 07:07:41;;;;;;;28.40;13.60;;;;;;;9.40;89.78;96194.13;5068851;28;20103;-49
2023/03/02 07:10:12;;;;;;;26.80;13.60;;;;;;;9.62;86.19;96188.50;5067120;28;20095;-50
2023/03/02 07:12:41;;;;;;;26.08;13.13;;;;;;;9.63;81.63;96203.31;5058375;28;20081;-55
2023/03/02 07:15:12;;;;;;;30.88;14.48;;;;;;;10.06;79.79;96199.22;5065464;28;20095;-55
2023/03/02 07:17:42;;;;;;;34.83;16.58;;;;;;;10.26;78.40;96191.25;5066463;28;20083;-51
2023/03/02 07:20:13;;;;;;;28.55;15.13;;;;;;;10.38;76.16;96192.66;5065398;28;20083;-49
2023/03/02 07:22:42;;;;;;;30.52;14.57;;;;;;;10.67;72.25;96197.72;5069659;28;20083;-49
2023/03/02 07:25:12;;;;;;;25.27;12.70;;;;;;;10.68;72.71;96205.47;5071504;28;20076;-48
2023/03/02 07:27:40;;;;;;;24.77;12.55;;;;;;;10.90;70.63;96209.44;5069654;28;20088;-48
2023/03/02 07:30:10;;;;;;;25.45;13.55;;;;;;;9.68;76.50;96208.97;5066167;28;20088;-54
2023/03/02 07:32:38;;;;;;;24.95;12.85;;;;;;;10.36;76.82;96208.63;5070312;28;20087;-53
2023/03/02 07:35:07;;;;;;;25.17;13.15;;;;;;;9.92;79.93;96208.44;5071401;28;20075;-55
2023/03/02 07:37:36;;;;;;;27.85;13.40;;;;;;;10.32;79.82;96212.53;5065670;28;20085;-50
2023/03/02 07:40:06;;;;;;;23.75;12.43;;;;;;;10.14;82.57;96214.28;5066622;28;20075;-53
2023/03/02 07:42:36;;;;;;;27.63;15.23;;;;;;;10.92;72.11;96210.13;5065116;28;20071;-51
2023/03/02 07:45:06;;;;;;;26.58;12.60;;;;;;;10.27;79.03;96206.88;5061292;28;20084;-53
2023/03/02 07:47:34;;;;;;;22.05;12.20;;;;;;;10.79;77.49;96217.59;5062615;28;20107;-54
2023/03/02 07:50:02;;;;;;;26.75;11.82;;;;;;;9.45;96.83;96218.22;5059833;28;20087;-51
2023/03/02 07:52:31;;;;;;;22.60;10.70;;;;;;;9.50;100.00;96206.28;5061620;28;20094;-49
2023/03/02 07:54:59;;;;;;;25.65;12.30;;;;;;;9.64;100.00;96217.31;5057056;28;20074;-49
2023/03/02 07:57:27;;;;;;;27.75;14.15;;;;;;;9.48;100.00;96204.75;5060613;28;20083;-53
2023/03/02 07:59:57;;;;;;;24.17;12.60;;;;;;;9.62;98.12;96206.09;5060333;28;20087;-47
2023/03/02 08:02:25;;;;;;;22.85;11.27;;;;;;;9.58;100.00;96216.09;5063786;28;20525;-52
2023/03/02 08:04:54;;;;;;;24.42;13.25;;;;;;;8.78;100.00;96226.09;5063094;28;20081;-51
2023/03/02 08:07:22;;;;;;;23.20;11.23;;;;;;;9.55;100.00;96219.00;5066116;28;20083;-50
2023/03/02 08:09:50;;;;;;;20.52;11.02;;;;;;;9.33;100.00;96225.47;5061545;28;20084;-52
2023/03/02 08:12:18;;;;;;;20.25;9.80;;;;;;;10.21;90.45;96229.34;5060444;28;20119;-52
2023/03/02 08:14:47;;;;;;;22.02;12.30;;;;;;;9.44;100.00;96222.66;5060685;28;20090;-46
2023/03/02 08:17:17;;;;;;;18.27;10.48;;;;;;;9.90;96.80;96225.38;5058517;28;20084;-52
2023/03/02 08:19:45;;;;;;;20.67;10.77;;;;;;;10.39;90.98;96224.16;5058195;28;20525;-48
2023/03/02 08:22:14;;;;;;;18.38;7.93;;;;;;;9.03;100.00;96211.53;5056956;28;20538;-47
2023/03/02 08:24:42;;;;;;;18.05;9.38;;;;;;;10.56;92.12;96224.31;5059038;28;20087;-50
2023/03/02 08:27:13;;;;;;;19.10;9.60;;;;;;;10.73;82.41;96227.91;5061415;28;20080;-52
2023/03/02 08:29:42;;;;;;;17.00;8.70;;;;;;;10.50;91.00;96223.09;5061007;28;20084;-51
2023/03/02 08:32:10;;;;;;;23.10;11.40;;;;;;;11.35;83.14;96207.63;5061233;28;20091;-52
2023/03/02 08:34:41;;;;;;;16.10;8.93;;;;;;;10.84;83.04;96223.25;5060547;28;20091;-50
2023/03/02 08:37:09;;;;;;;23.50;9.60;;;;;;;11.19;78.95;96216.28;5064597;28;20107;-51
2023/03/02 08:39:37;;;;;;;24.02;12.20;;;;;;;10.24;88.93;96222.97;5061876;28;20482;-51
2023/03/02 08:42:05;;;;;;;19.63;10.45;;;;;;;10.31;92.36;96216.16;5065689;28;20084;-51
2023/03/02 08:44:34;;;;;;;24.25;11.35;;;;;;;10.40;90.95;96211.81;5064150;28;20113;-52
2023/03/02 08:47:02;;;;;;;26.90;13.48;;;;;;;10.54;86.34;96219.19;5062038;28;20079;-50
2023/03/02 08:49:30;;;;;;;22.88;11.65;;;;;;;10.88;80.81;96214.06;5064109;28;20725;-47
2023/03/02 08:52:00;;;;;;;17.55;8.10;;;;;;;10.86;81.80;96215.19;5061925;28;20096;-52
2023/03/02 08:54:28;;;;;;;25.25;12.13;;;;;;;10.80;83.67;96211.31;5058602;28;20550;-52
2023/03/02 08:56:56;;;;;;;26.20;12.70;;;;;;;11.15;79.18;96209.66;5061080;28;20084;-49
2023/03/02 08:59:25;;;;;;;20.50;10.98;;;;;;;10.31;87.84;96221.41;5059075;28;20076;-52
2023/03/02 09:01:53;;;;;;;24.15;11.95;;;;;;;10.88;84.24;96210.59;5057764;28;20414;-47
2023/03/02 09:04:22;;;;;;;24.90;11.82;;;;;;;10.68;85.69;96210.75;5055080;28;22040;-54
2023/03/02 09:06:50;;;;;;;23.48;13.20;;;;;;;11.07;82.34;96214.84;5058761;28;20076;-49
2023/03/02 09:09:20;;;;;;;19.92;11.32;;;;;;;11.62;73.80;96196.88;5059190;28;20617;-51
2023/03/02 09:11:48;;;;;;;20.77;10.07;;;;;;;11.13;78.04;96204.50;5056928;28;20608;-57
2023/03/02 09:14:16;;;;;;;25.50;12.70;;;;;;;12.35;68.41;96200.81;5057684;28;20079;-53
2023/03/02 09:16:45;;;;;;;21.50;11.18;;;;;;;11.71;72.68;96204.84;5057782;28;20096;-54
2023/03/02 09:19:14;;;;;;;23.48;13.60;;;;;;;11.31;75.20;96215.00;5060919;28;20092;-52
2023/03/02 09:21:42;;;;;;;26.63;14.13;;;;;;;11.09;76.21;96221.63;5061379;28;20079;-47
2023/03/02 09:24:11;;;;;;;17.85;8.52;;;;;;;12.06;69.92;96204.69;5055878;28;20075;-53
2023/03/02 09:26:40;;;;;;;22.73;12.52;;;;;;;11.78;73.38;96211.16;5058816;28;20079;-53
2023/03/02 09:29:08;;;;;;;22.23;11.90;;;;;;;11.44;74.40;96216.44;5057123;28;20088;-50
2023/03/02 09:31:37;;;;;;;20.08;10.90;;;;;;;12.17;73.23;96213.31;5055724;28;20084;-51
2023/03/02 09:34:06;;;;;;;24.13;15.30;;;;;;;11.53;73.14;96213.69;5060071;28;20076;-48
2023/03/02 09:36:34;;;;;;;25.83;11.18;;;;;;;12.14;69.83;96214.47;5063840;28;20474;-56
2023/03/02 09:39:07;;;;;;;22.35;11.70;;;;;;;12.11;70.03;96218.28;5064292;28;20091;-53
2023/03/02 09:42:02;;;;;;;28.20;12.57;;;;;;;12.47;68.30;96218.03;5063007;28;20087;-51
2023/03/02 09:44:48;;;;;;;23.33;13.95;;;;;;;11.63;73.04;96224.09;5060696;28;20084;-52
2023/03/02 09:47:19;;;;;;;22.42;11.85;;;;;;;11.65;73.87;96224.78;5060196;28;20076;-49
2023/03/02 09:50:10;;;;;;;27.13;12.85;;;;;;;12.48;69.70;96211.75;5056736;28;20402;-49
2023/03/02 09:52:41;;;;;;;23.33;12.07;;;;;;;11.90;72.59;96209.91;5058939;28;20481;-53
2023/03/02 09:55:15;;;;;;;20.48;12.88;;;;;;;12.32;70.30;96209.91;5058932;28;20077;-49
2023/03/02 09:57:45;;;;;;;24.73;10.93;;;;;;;12.71;67.23;96211.94;5060024;28;20072;-51
2023/03/02 10:00:15;;;;;;;;;;;;;;;13.20;66.43;96208.47;5056347;28;20095;-50
2023/03/02 10:02:49;;;;;;;23.05;12.57;;;;;;;12.94;65.64;96209.50;5053389;28;19970;-52
2023/03/02 10:05:21;;;;;;;21.58;11.63;;;;;;;13.39;62.54;96205.50;5060605;28;20084;-50
2023/03/02 10:07:49;;;;;;;23.50;13.10;;;;;;;12.74;64.68;96211.63;5056171;28;20834;-53
2023/03/02 10:10:26;;;;;;;23.83;13.68;;;;;;;12.77;63.63;96206.00;5062780;28;20091;-48
2023/03/02 10:13:09;;;;;;;21.08;11.00;;;;;;;13.04;62.97;96212.81;5059200;28;20471;-50
2023/03/02 10:15:40;;;;;;;26.00;12.35;;;;;;;13.23;61.86;96203.66;5061543;28;20041;-52
2023/03/02 10:18:18;;;;;;;23.95;12.13;;;;;;;13.60;59.29;96204.16;5064421;28;20532;-51
2023/03/02 10:20:50;;;;;;;18.50;10.07;;;;;;;13.99;60.66;96199.69;5060303;28;20544;-52
2023/03/02 10:23:31;;;;;;;25.33;12.68;;;;;;;14.08;57.40;96200.50;5062829;28;20545;-50
2023/03/02 10:26:04;;;;;;;22.58;12.52;;;;;;;14.01;60.19;96202.19;5064001;28;20076;-50
2023/03/02 10:28:40;;;;;;;23.73;12.82;;;;;;;14.14;57.89;96201.59;5055506;28;20088;-48
2023/03/02 10:31:10;;;;;;;22.25;13.13;;;;;;;13.80;59.76;96194.81;5062790;28;20084;-50
2023/03/02 10:33:39;;;;;;;27.60;15.00;;;;;;;13.54;61.23;96195.88;5067364;28;20079;-54
2023/03/02 10:36:18;;;;;;;24.67;13.02;;;;;;;14.26;59.07;96200.22;5062774;28;20099;-56
2023/03/02 10:38:47;;;;;;;26.90;12.68;;;;;;;14.91;56.05;96199.03;5067507;28;20079;-51
2023/03/02 10:41:21;;;;;;;27.20;14.88;;;;;;;13.69;62.25;96206.56;5067717;28;20091;-51
2023/03/02 10:43:52;;;;;;;26.77;16.10;;;;;;;14.32;58.44;96204.84;5065209;28;20076;-51
2023/03/02 10:46:21;;;;;;;28.45;13.40;;;;;;;14.11;58.52;96200.16;5058981;28;20076;-52
2023/03/02 10:48:51;;;;;;;26.85;13.57;;;;;;;14.86;55.63;96196.88;5056617;28;20509;-54
2023/03/02 10:51:25;;;;;;;24.85;12.77;;;;;;;14.79;56.46;96198.59;5059664;28;20068;-51
2023/03/02 10:54:04;;;;;;;25.63;13.38;;;;;;;14.36;56.37;96200.03;5057950;28;20087;-50
2023/03/02 10:56:33;;;;;;;22.08;12.73;;;;;;;15.23;54.44;96191.78;5060090;28;20091;-47
2023/03/02 10:59:12;;;;;;;22.83;13.10;;;;;;;14.57;54.48;96199.44;5062408;28;20076;-53
2023/03/02 11:01:41;;;;;;;23.48;12.18;;;;;;;15.09;54.44;96191.56;5075006;28;20080;-49
2023/03/02 11:04:15;;;;;;;27.10;12.23;;;;;;;14.20;57.93;96191.13;5062876;28;20088;-54
2023/03/02 11:06:43;;;;;;;21.13;10.75;;;;;;;15.11;55.96;96180.78;5062639;28;20083;-50
2023/03/02 11:09:14;;;;;;;17.75;9.90;;;;;;;14.01;58.13;96187.09;5063344;28;20072;-53
2023/03/02 11:11:48;;;;;;;;;;;;;;;13.54;61.03;96185.25;5063904;28;20091;-50
2023/03/02 11:14:17;;;;;;;25.00;12.30;;;;;;;14.15;61.24;96187.38;5062654;28;20605;-47
2023/03/02 11:16:46;;;;;;;21.90;10.20;;;;;;;13.76;60.74;96177.56;5065641;28;20072;-53
2023/03/02 11:19:16;;;;;;;18.77;11.43;;;;;;;14.45;59.05;96183.88;5065641;28;20079;-49
2023/03/02 11:21:48;;;;;;;19.27;10.15;;;;;;;14.03;59.28;96178.97;5062294;28;20072;-51
2023/03/02 11:24:20;;;;;;;20.90;10.48;;;;;;;15.50;54.81;96172.56;5064537;28;20083;-49
2023/03/02 11:26:50;;;;;;;19.42;11.48;;;;;;;14.80;52.69;96181.69;5061951;28;20072;-54
2023/03/02 11:29:27;;;;;;;19.45;11.10;;;;;;;15.04;54.17;96170.03;5063053;28;20080;-54
2023/03/02 11:31:57;;;;;;;21.50;10.52;;;;;;;15.25;52.89;96157.91;5064978;28;20544;-51